Time;durP1;ratioP1;P1;durP2;ratioP2;P2;SDS_P1;SDS_P2;PMS_P1;PMS_P2;Temp;Humidity;BMP_temperature;BMP_pressure;BME280_temperature;BME280_humidity;BME280_pressure;Samples;Min_cycle;Max_cycle;Signal;HPM_P1;HPM_P2
2021/07/18 00:01:30;;;;;;;17.77;9.15;;;;;;;;;;5072060;28;20254;-62
2021/07/18 00:04:15;;;;;;;15.63;9.10;;;;;;;;;;5072820;28;20131;-61
2021/07/18 00:07:01;;;;;;;22.13;9.07;;;;;;;;;;5075715;28;20075;-62
2021/07/18 00:09:46;;;;;;;16.80;9.00;;;;;;;;;;5075724;28;20414;-62
2021/07/18 00:12:32;;;;;;;16.73;8.70;;;;;;;;;;5076228;28;20410;-62
2021/07/18 00:15:17;;;;;;;13.45;8.45;;;;;;;;;;5076011;28;20123;-62
2021/07/18 00:18:03;;;;;;;16.20;9.02;;;;;;;;;;5075920;28;20037;-62
2021/07/18 00:20:50;;;;;;;25.00;10.23;;;;;;;;;;5075381;28;20398;-62
2021/07/18 00:23:35;;;;;;;20.85;10.90;;;;;;;;;;5075438;28;20044;-62
2021/07/18 00:26:20;;;;;;;16.30;10.98;;;;;;;;;;5074775;28;20407;-62
2021/07/18 00:29:05;;;;;;;18.90;10.27;;;;;;;;;;5074440;28;20060;-62
2021/07/18 00:31:50;;;;;;;20.45;10.25;;;;;;;;;;5074491;28;20051;-62
2021/07/18 00:34:36;;;;;;;19.38;11.07;;;;;;;;;;5074511;28;20052;-62
2021/07/18 00:37:22;;;;;;;19.75;10.75;;;;;;;;;;5074600;28;20078;-62
2021/07/18 00:40:09;;;;;;;23.85;10.63;;;;;;;;;;5073942;28;20048;-63
2021/07/18 00:42:54;;;;;;;22.83;11.20;;;;;;;;;;5074383;28;20052;-63
2021/07/18 00:45:39;;;;;;;16.92;10.45;;;;;;;;;;5074580;28;20049;-63
2021/07/18 00:48:28;;;;;;;19.85;9.73;;;;;;;;;;5074288;28;20449;-62
2021/07/18 00:51:14;;;;;;;18.63;10.98;;;;;;;;;;5073667;28;20048;-62
2021/07/18 00:54:00;;;;;;;20.00;10.68;;;;;;;;;;5074050;28;20499;-62
2021/07/18 00:56:45;;;;;;;19.77;10.82;;;;;;;;;;5073226;28;20051;-62
2021/07/18 00:59:30;;;;;;;23.45;11.70;;;;;;;;;;5073762;28;20045;-64
2021/07/18 01:02:17;;;;;;;25.70;12.07;;;;;;;;;;5073760;28;20044;-62
2021/07/18 01:05:03;;;;;;;23.33;12.05;;;;;;;;;;5074057;28;20077;-62
2021/07/18 01:07:49;;;;;;;26.35;12.25;;;;;;;;;;5073714;28;20159;-62
2021/07/18 01:10:34;;;;;;;21.83;10.50;;;;;;;;;;5073245;28;20483;-62
2021/07/18 01:13:19;;;;;;;25.98;12.50;;;;;;;;;;5073680;28;20411;-62
2021/07/18 01:16:05;;;;;;;22.30;11.30;;;;;;;;;;5073678;28;20045;-62
2021/07/18 01:18:50;;;;;;;19.25;10.75;;;;;;;;;;5073010;28;20045;-63
2021/07/18 01:21:36;;;;;;;18.52;10.60;;;;;;;;;;5073004;28;20053;-63
2021/07/18 01:24:24;;;;;;;22.40;11.65;;;;;;;;;;5051668;28;20057;-62
2021/07/18 01:27:13;;;;;;;27.33;14.02;;;;;;;;;;5064924;28;20072;-62
2021/07/18 01:30:02;;;;;;;19.92;12.65;;;;;;;;;;5058324;28;20075;-62
2021/07/18 01:32:48;;;;;;;23.15;12.32;;;;;;;;;;5072200;28;20044;-62
2021/07/18 01:35:34;;;;;;;27.83;13.82;;;;;;;;;;5073204;28;20057;-62
2021/07/18 01:38:19;;;;;;;33.88;16.95;;;;;;;;;;5072799;28;20047;-62
2021/07/18 01:41:05;;;;;;;32.97;17.83;;;;;;;;;;5072958;28;20067;-62
2021/07/18 01:43:50;;;;;;;27.83;17.02;;;;;;;;;;5073105;28;20045;-62
2021/07/18 01:46:35;;;;;;;49.30;20.98;;;;;;;;;;5073153;28;20063;-62
2021/07/18 01:49:21;;;;;;;48.65;21.08;;;;;;;;;;5072391;28;20056;-62
2021/07/18 01:52:07;;;;;;;31.58;17.45;;;;;;;;;;5072979;28;20048;-62
2021/07/18 01:54:55;;;;;;;36.67;18.77;;;;;;;;;;5072962;28;20121;-62
2021/07/18 01:57:41;;;;;;;44.33;18.85;;;;;;;;;;5072503;28;20135;-62
2021/07/18 02:00:29;;;;;;;40.17;19.90;;;;;;;;;;5042526;28;20163;-62
2021/07/18 02:03:16;;;;;;;36.42;20.52;;;;;;;;;;5057706;28;20063;-62
2021/07/18 02:06:06;;;;;;;25.30;16.27;;;;;;;;;;5058371;28;20068;-62
2021/07/18 02:08:53;;;;;;;24.10;15.35;;;;;;;;;;5057901;28;20041;-62
2021/07/18 02:11:38;;;;;;;32.60;18.52;;;;;;;;;;5072097;28;20040;-62
2021/07/18 02:14:23;;;;;;;26.45;16.35;;;;;;;;;;5072420;28;20143;-62
2021/07/18 02:17:09;;;;;;;31.13;19.08;;;;;;;;;;5072362;28;20411;-63
2021/07/18 02:19:54;;;;;;;30.08;17.98;;;;;;;;;;5072214;28;20131;-62
2021/07/18 02:22:47;;;;;;;37.92;20.48;;;;;;;;;;5072297;28;20056;-62
2021/07/18 02:25:32;;;;;;;29.02;16.92;;;;;;;;;;5072265;28;20055;-62
2021/07/18 02:28:17;;;;;;;28.63;17.55;;;;;;;;;;5071901;28;20569;-62
2021/07/18 02:31:04;;;;;;;36.13;19.25;;;;;;;;;;5071857;28;20047;-62
2021/07/18 02:33:49;;;;;;;29.17;18.42;;;;;;;;;;5072027;28;20040;-62
2021/07/18 02:36:35;;;;;;;29.92;16.95;;;;;;;;;;5072285;28;20503;-62
2021/07/18 02:39:21;;;;;;;28.63;16.17;;;;;;;;;;5071648;28;20495;-62
2021/07/18 02:42:06;;;;;;;27.00;16.70;;;;;;;;;;5072150;28;20053;-62
2021/07/18 02:44:52;;;;;;;20.23;13.82;;;;;;;;;;5072045;28;20051;-62
2021/07/18 02:47:37;;;;;;;28.70;17.15;;;;;;;;;;5071908;28;20407;-62
2021/07/18 02:50:24;;;;;;;29.23;16.90;;;;;;;;;;5071647;28;20045;-62
2021/07/18 02:53:11;;;;;;;21.95;14.45;;;;;;;;;;5071127;28;20075;-62
2021/07/18 02:55:56;;;;;;;29.13;16.50;;;;;;;;;;5071035;28;20554;-62
2021/07/18 02:58:42;;;;;;;32.08;16.95;;;;;;;;;;5071665;28;20123;-62
2021/07/18 03:01:27;;;;;;;36.63;18.67;;;;;;;;;;5071760;28;20044;-62
2021/07/18 03:04:13;;;;;;;35.10;18.85;;;;;;;;;;5071985;28;20055;-62
2021/07/18 03:06:58;;;;;;;37.53;19.40;;;;;;;;;;5071390;28;20055;-62
2021/07/18 03:09:44;;;;;;;29.67;16.70;;;;;;;;;;5071472;28;20067;-62
2021/07/18 03:12:30;;;;;;;32.60;16.45;;;;;;;;;;5071930;28;20453;-62
2021/07/18 03:15:15;;;;;;;36.03;19.17;;;;;;;;;;5051594;28;20067;-62
2021/07/18 03:18:02;;;;;;;37.83;20.58;;;;;;;;;;5069362;28;20266;-62
2021/07/18 03:20:47;;;;;;;28.73;17.63;;;;;;;;;;5071635;28;20182;-62
2021/07/18 03:23:33;;;;;;;33.17;17.40;;;;;;;;;;5071513;28;20088;-62
2021/07/18 03:26:18;;;;;;;31.65;17.95;;;;;;;;;;5071927;28;20053;-62
2021/07/18 03:29:04;;;;;;;41.92;19.67;;;;;;;;;;5071684;28;20052;-62
2021/07/18 03:31:49;;;;;;;51.72;23.85;;;;;;;;;;5071532;28;20041;-62
2021/07/18 03:34:34;;;;;;;39.28;21.08;;;;;;;;;;5071657;28;20074;-62
2021/07/18 03:37:20;;;;;;;39.60;19.15;;;;;;;;;;5071747;28;20099;-62
2021/07/18 03:40:06;;;;;;;32.88;19.00;;;;;;;;;;5071255;28;20441;-62
2021/07/18 03:42:51;;;;;;;42.63;22.40;;;;;;;;;;5075699;28;20051;-62
2021/07/18 03:45:36;;;;;;;68.03;28.90;;;;;;;;;;5075487;28;20051;-62
2021/07/18 03:48:22;;;;;;;47.67;24.15;;;;;;;;;;5075258;28;20545;-62
2021/07/18 03:51:07;;;;;;;47.38;23.05;;;;;;;;;;5055050;28;20484;-62
2021/07/18 03:53:53;;;;;;;55.38;27.05;;;;;;;;;;5055432;28;20052;-62
2021/07/18 03:56:38;;;;;;;85.97;32.70;;;;;;;;;;5055284;28;20048;-62
2021/07/18 03:59:24;;;;;;;113.53;35.58;;;;;;;;;;5065757;28;20168;-62
2021/07/18 04:02:09;;;;;;;73.72;28.90;;;;;;;;;;5075230;28;20142;-62
2021/07/18 04:04:55;;;;;;;73.63;28.25;;;;;;;;;;5075092;28;20047;-62
2021/07/18 04:07:40;;;;;;;73.97;28.70;;;;;;;;;;5074771;28;20072;-62
2021/07/18 04:10:26;;;;;;;63.90;30.25;;;;;;;;;;5054605;28;20049;-62
2021/07/18 04:13:11;;;;;;;52.15;26.83;;;;;;;;;;5054904;28;20055;-62
2021/07/18 04:15:56;;;;;;;53.53;27.45;;;;;;;;;;5066288;28;20128;-62
2021/07/18 04:18:42;;;;;;;85.93;24.23;;;;;;;;;;5074497;28;20052;-62
2021/07/18 04:21:27;;;;;;;323.83;32.60;;;;;;;;;;5074433;28;20491;-62
2021/07/18 04:24:12;;;;;;;214.88;28.33;;;;;;;;;;5074546;28;20548;-62
2021/07/18 04:26:58;;;;;;;151.93;22.55;;;;;;;;;;5074640;28;20044;-62
2021/07/18 04:29:43;;;;;;;41.80;18.63;;;;;;;;;;5073908;28;20742;-62
2021/07/18 04:32:29;;;;;;;58.60;23.42;;;;;;;;;;5074506;28;20048;-62
2021/07/18 04:35:14;;;;;;;30.42;19.77;;;;;;;;;;5074417;28;20141;-62
2021/07/18 04:38:00;;;;;;;39.45;20.77;;;;;;;;;;5074535;28;20410;-63
2021/07/18 04:40:45;;;;;;;36.08;21.13;;;;;;;;;;5054107;28;20049;-62
2021/07/18 04:43:31;;;;;;;33.58;20.10;;;;;;;;;;5054497;28;20053;-62
2021/07/18 04:46:16;;;;;;;33.80;20.77;;;;;;;;;;5054306;28;20557;-62
2021/07/18 04:49:02;;;;;;;28.77;18.60;;;;;;;;;;5057846;28;20487;-62
2021/07/18 04:51:47;;;;;;;55.47;22.65;;;;;;;;;;5073120;28;20072;-62
2021/07/18 04:54:33;;;;;;;67.70;22.98;;;;;;;;;;5074154;28;20380;-62
2021/07/18 04:57:18;;;;;;;31.88;16.40;;;;;;;;;;5074010;28;20171;-62
2021/07/18 05:00:10;;;;;;;31.65;18.08;;;;;;;;;;5073672;28;20047;-62
2021/07/18 05:02:55;;;;;;;29.55;17.95;;;;;;;;;;5067507;28;20048;-62
2021/07/18 05:05:40;;;;;;;23.58;16.42;;;;;;;;;;5063300;28;20079;-61
2021/07/18 05:08:26;;;;;;;31.13;20.08;;;;;;;;;;5053839;28;20056;-62
2021/07/18 05:11:11;;;;;;;27.92;18.73;;;;;;;;;;5058851;28;20041;-62
2021/07/18 05:13:57;;;;;;;28.90;18.55;;;;;;;;;;5073774;28;20052;-62
2021/07/18 05:16:42;;;;;;;24.65;16.90;;;;;;;;;;5073750;28;20037;-62
2021/07/18 05:19:27;;;;;;;24.30;16.65;;;;;;;;;;5073426;28;20123;-63
2021/07/18 05:22:13;;;;;;;26.83;17.30;;;;;;;;;;5073401;28;20504;-61
2021/07/18 05:24:59;;;;;;;21.70;16.55;;;;;;;;;;5073804;28;20204;-62
2021/07/18 05:27:44;;;;;;;26.77;16.77;;;;;;;;;;5073392;28;20044;-62
2021/07/18 05:30:30;;;;;;;22.00;15.48;;;;;;;;;;5073185;28;20051;-62
2021/07/18 05:33:15;;;;;;;22.00;15.48;;;;;;;;;;5073384;28;20178;-62
2021/07/18 05:36:00;;;;;;;21.13;15.10;;;;;;;;;;5073578;28;20048;-62
2021/07/18 05:38:46;;;;;;;21.27;14.32;;;;;;;;;;5073769;28;20094;-62
2021/07/18 05:41:31;;;;;;;19.90;14.32;;;;;;;;;;5062570;28;20056;-62
2021/07/18 05:44:16;;;;;;;22.08;13.88;;;;;;;;;;5068781;28;20044;-62
2021/07/18 05:47:02;;;;;;;19.73;13.18;;;;;;;;;;5072847;28;20055;-62
2021/07/18 05:49:47;;;;;;;22.63;15.23;;;;;;;;;;5072744;28;20063;-62
2021/07/18 05:52:33;;;;;;;20.73;13.57;;;;;;;;;;5073098;28;20058;-62
2021/07/18 05:55:19;;;;;;;16.25;11.98;;;;;;;;;;5072410;28;20044;-62
2021/07/18 05:58:05;;;;;;;18.15;12.52;;;;;;;;;;5071889;28;20094;-62
2021/07/18 06:00:50;;;;;;;15.63;12.45;;;;;;;;;;5065975;28;20052;-63
2021/07/18 06:03:36;;;;;;;17.65;11.82;;;;;;;;;;5052609;28;20522;-63
2021/07/18 06:06:22;;;;;;;13.48;10.25;;;;;;;;;;5065859;28;20045;-63
2021/07/18 06:09:07;;;;;;;19.90;11.38;;;;;;;;;;5057379;28;20049;-63
2021/07/18 06:11:53;;;;;;;15.90;10.50;;;;;;;;;;5070894;28;20045;-63
2021/07/18 06:14:39;;;;;;;13.23;10.00;;;;;;;;;;5071340;28;20049;-63
2021/07/18 06:17:26;;;;;;;14.82;10.60;;;;;;;;;;5055250;28;20068;-64
2021/07/18 06:20:14;;;;;;;15.05;9.82;;;;;;;;;;5048668;28;20049;-63
2021/07/18 06:22:59;;;;;;;12.05;9.25;;;;;;;;;;5037393;28;20059;-63
2021/07/18 06:25:45;;;;;;;12.20;10.32;;;;;;;;;;5051198;28;20052;-64
2021/07/18 06:28:30;;;;;;;12.38;9.52;;;;;;;;;;5052854;28;20063;-64
2021/07/18 06:31:16;;;;;;;14.40;9.25;;;;;;;;;;5056968;28;20044;-63
2021/07/18 06:34:02;;;;;;;11.85;9.48;;;;;;;;;;5037302;28;20045;-63
2021/07/18 06:36:49;;;;;;;11.30;9.05;;;;;;;;;;5055865;28;20052;-63
2021/07/18 06:39:35;;;;;;;15.85;9.27;;;;;;;;;;5028932;28;20499;-63
2021/07/18 06:42:20;;;;;;;10.57;8.73;;;;;;;;;;5054148;28;20049;-63
2021/07/18 06:45:07;;;;;;;16.23;8.63;;;;;;;;;;5064542;28;20062;-63
2021/07/18 06:47:55;;;;;;;12.27;8.20;;;;;;;;;;5054807;28;20049;-63
2021/07/18 06:50:42;;;;;;;15.75;8.60;;;;;;;;;;5052239;28;20052;-63
2021/07/18 06:53:27;;;;;;;13.85;8.23;;;;;;;;;;5061477;28;20135;-63
2021/07/18 06:56:14;;;;;;;11.93;8.35;;;;;;;;;;5056958;28;20059;-64
2021/07/18 06:59:00;;;;;;;11.88;8.40;;;;;;;;;;5067489;28;20045;-63
2021/07/18 07:01:45;;;;;;;8.35;7.47;;;;;;;;;;5071864;28;20045;-64
2021/07/18 07:04:31;;;;;;;10.35;8.90;;;;;;;;;;5051896;28;20048;-63
2021/07/18 07:07:16;;;;;;;12.13;7.95;;;;;;;;;;5058793;28;20568;-63
2021/07/18 07:10:02;;;;;;;9.07;6.93;;;;;;;;;;5071407;28;20522;-63
2021/07/18 07:12:48;;;;;;;10.50;7.70;;;;;;;;;;5071798;28;20655;-63
2021/07/18 07:15:35;;;;;;;15.23;8.27;;;;;;;;;;5073758;28;20051;-63
2021/07/18 07:18:21;;;;;;;11.20;8.43;;;;;;;;;;5061841;28;20415;-64
2021/07/18 07:21:06;;;;;;;11.90;7.97;;;;;;;;;;5075425;28;20498;-64
2021/07/18 07:23:53;;;;;;;10.32;8.05;;;;;;;;;;5076199;28;20044;-63
2021/07/18 07:26:38;;;;;;;11.20;6.55;;;;;;;;;;5075613;28;20131;-63
2021/07/18 07:29:29;;;;;;;9.07;6.45;;;;;;;;;;5067255;28;20049;-63
2021/07/18 07:32:15;;;;;;;9.95;6.15;;;;;;;;;;5074620;28;20162;-63
2021/07/18 07:35:02;;;;;;;9.85;7.07;;;;;;;;;;5070543;28;20565;-63
2021/07/18 07:37:47;;;;;;;10.30;7.13;;;;;;;;;;5058315;28;20445;-63
2021/07/18 07:40:33;;;;;;;8.02;6.75;;;;;;;;;;5055472;28;20045;-64
2021/07/18 07:43:18;;;;;;;7.72;5.50;;;;;;;;;;5066852;28;20075;-65
2021/07/18 07:46:04;;;;;;;7.00;5.85;;;;;;;;;;5063112;28;20044;-64
2021/07/18 07:48:50;;;;;;;8.48;6.10;;;;;;;;;;5069020;28;20055;-65
2021/07/18 07:51:35;;;;;;;9.10;4.93;;;;;;;;;;5055074;28;20049;-64
2021/07/18 07:54:20;;;;;;;6.05;4.43;;;;;;;;;;5068252;28;20120;-64
2021/07/18 07:57:06;;;;;;;4.88;4.03;;;;;;;;;;5074224;28;20048;-65
2021/07/18 07:59:52;;;;;;;7.35;5.05;;;;;;;;;;5074805;28;20544;-65
2021/07/18 08:02:37;;;;;;;8.60;4.30;;;;;;;;;;5072037;28;20059;-64
2021/07/18 08:05:22;;;;;;;6.97;3.35;;;;;;;;;;5066410;28;20537;-65
2021/07/18 08:08:08;;;;;;;5.57;4.85;;;;;;;;;;5066102;28;20052;-65
2021/07/18 08:10:55;;;;;;;5.78;3.72;;;;;;;;;;5066789;28;20056;-64
2021/07/18 08:13:40;;;;;;;7.47;3.85;;;;;;;;;;5065763;28;20044;-64
2021/07/18 08:16:26;;;;;;;7.60;3.90;;;;;;;;;;5069185;28;20142;-64
2021/07/18 08:19:18;;;;;;;8.73;4.35;;;;;;;;;;5064662;28;20094;-64
2021/07/18 08:22:04;;;;;;;7.63;3.55;;;;;;;;;;5059399;28;20063;-65
2021/07/18 08:24:49;;;;;;;8.20;3.67;;;;;;;;;;5067390;28;20067;-65
2021/07/18 08:27:35;;;;;;;3.50;2.78;;;;;;;;;;5061673;28;20052;-64
2021/07/18 08:30:20;;;;;;;3.55;3.22;;;;;;;;;;5065905;28;20045;-63
2021/07/18 08:33:07;;;;;;;4.55;4.10;;;;;;;;;;5068252;28;20495;-64
2021/07/18 08:35:53;;;;;;;8.18;3.90;;;;;;;;;;5070118;28;20045;-64
2021/07/18 08:38:39;;;;;;;5.93;3.42;;;;;;;;;;5073203;28;20053;-64
2021/07/18 08:41:24;;;;;;;6.13;4.85;;;;;;;;;;5055577;28;20059;-64
2021/07/18 08:44:11;;;;;;;7.53;4.35;;;;;;;;;;5054525;28;20078;-64
2021/07/18 08:46:57;;;;;;;3.85;3.30;;;;;;;;;;5054525;28;20126;-64
2021/07/18 08:49:42;;;;;;;5.25;3.05;;;;;;;;;;5056235;28;20036;-64
2021/07/18 08:52:27;;;;;;;6.30;3.85;;;;;;;;;;5059731;28;20049;-64
2021/07/18 08:55:12;;;;;;;5.22;3.50;;;;;;;;;;5055216;28;20118;-64
2021/07/18 08:57:58;;;;;;;8.75;3.17;;;;;;;;;;5054157;28;20045;-64
2021/07/18 09:00:44;;;;;;;6.38;2.58;;;;;;;;;;5058963;28;20043;-64
2021/07/18 09:03:29;;;;;;;4.25;2.60;;;;;;;;;;5073932;28;20406;-64
2021/07/18 09:06:14;;;;;;;6.25;1.95;;;;;;;;;;5073319;28;20610;-64
2021/07/18 09:09:00;;;;;;;3.75;2.03;;;;;;;;;;5073611;28;20652;-64
2021/07/18 09:11:45;;;;;;;4.05;2.20;;;;;;;;;;5058458;28;20538;-64
2021/07/18 09:14:31;;;;;;;5.15;1.73;;;;;;;;;;5072559;28;20169;-65
2021/07/18 09:17:17;;;;;;;2.95;1.83;;;;;;;;;;5073713;28;20045;-65
2021/07/18 09:20:15;;;;;;;3.72;1.67;;;;;;;;;;5061495;28;20055;-65
2021/07/18 09:23:10;;;;;;;3.47;1.55;;;;;;;;;;5070309;28;20178;-65
2021/07/18 09:26:14;;;;;;;2.47;1.42;;;;;;;;;;5073401;28;20109;-64
2021/07/18 09:29:01;;;;;;;3.13;1.85;;;;;;;;;;5071506;28;20048;-65
2021/07/18 09:31:47;;;;;;;2.58;1.75;;;;;;;;;;5073355;28;20048;-65
2021/07/18 09:34:35;;;;;;;3.40;2.05;;;;;;;;;;5067889;28;20044;-65
2021/07/18 09:37:22;;;;;;;2.45;1.23;;;;;;;;;;5068864;28;20498;-64
2021/07/18 09:40:14;;;;;;;4.90;1.40;;;;;;;;;;5067305;28;20198;-64
2021/07/18 09:43:00;;;;;;;3.90;1.90;;;;;;;;;;5064798;28;20068;-65
2021/07/18 09:45:54;;;;;;;3.08;1.70;;;;;;;;;;5071802;28;20178;-65
2021/07/18 09:48:42;;;;;;;2.33;1.33;;;;;;;;;;5067507;28;20505;-65
2021/07/18 09:51:28;;;;;;;3.03;1.08;;;;;;;;;;5068230;28;20419;-65
2021/07/18 09:54:14;;;;;;;2.35;1.20;;;;;;;;;;5071867;28;20067;-65
2021/07/18 09:56:59;;;;;;;1.90;0.90;;;;;;;;;;5074506;28;20052;-65
2021/07/18 09:59:50;;;;;;;3.00;1.20;;;;;;;;;;5065568;28;20044;-64
2021/07/18 10:02:35;;;;;;;3.28;1.20;;;;;;;;;;5072162;28;20054;-66
2021/07/18 10:05:27;;;;;;;2.35;1.20;;;;;;;;;;5068213;28;20055;-65
2021/07/18 10:08:14;;;;;;;1.30;1.10;;;;;;;;;;5054899;28;20063;-65
2021/07/18 10:10:59;;;;;;;3.65;1.27;;;;;;;;;;5052870;28;20106;-66
2021/07/18 10:13:44;;;;;;;2.05;0.98;;;;;;;;;;5067141;28;20044;-65
2021/07/18 10:16:34;;;;;;;3.38;1.40;;;;;;;;;;5065773;28;20679;-65
2021/07/18 10:19:20;;;;;;;3.22;1.25;;;;;;;;;;5069563;28;20053;-66
2021/07/18 10:22:06;;;;;;;3.08;0.82;;;;;;;;;;5061806;28;20195;-65
2021/07/18 10:24:52;;;;;;;4.55;1.30;;;;;;;;;;5063393;28;20111;-64
2021/07/18 10:27:37;;;;;;;3.42;1.10;;;;;;;;;;5066967;28;20041;-64
2021/07/18 10:30:22;;;;;;;2.33;1.10;;;;;;;;;;5058974;28;20063;-64
2021/07/18 10:33:08;;;;;;;2.63;1.20;;;;;;;;;;5053900;28;20823;-64
2021/07/18 10:35:53;;;;;;;2.33;1.10;;;;;;;;;;5072494;28;20068;-64
2021/07/18 10:38:38;;;;;;;2.45;1.25;;;;;;;;;;5071774;28;20491;-64
2021/07/18 10:41:40;;;;;;;2.63;1.50;;;;;;;;;;5073088;28;20044;-64
2021/07/18 10:44:27;;;;;;;2.25;1.20;;;;;;;;;;5073625;28;20355;-64
2021/07/18 10:47:12;;;;;;;2.10;1.10;;;;;;;;;;5061510;28;20047;-63
2021/07/18 10:49:58;;;;;;;4.80;1.30;;;;;;;;;;5067498;28;20194;-64
2021/07/18 10:52:44;;;;;;;2.35;1.30;;;;;;;;;;5053689;28;20095;-64
2021/07/18 10:55:29;;;;;;;2.45;1.30;;;;;;;;;;5073021;28;20087;-64
2021/07/18 10:58:34;;;;;;;5.13;1.98;;;;;;;;;;5071668;28;20074;-64
2021/07/18 11:01:20;;;;;;;3.65;1.35;;;;;;;;;;5053290;28;20071;-64
2021/07/18 11:04:06;;;;;;;4.18;1.08;;;;;;;;;;5062495;28;20054;-64
2021/07/18 11:06:51;;;;;;;3.28;1.20;;;;;;;;;;5069100;28;20422;-64
2021/07/18 11:09:45;;;;;;;3.38;1.52;;;;;;;;;;5072589;28;20056;-64
2021/07/18 11:12:32;;;;;;;3.70;1.50;;;;;;;;;;5059624;28;20084;-64
2021/07/18 11:15:20;;;;;;;2.75;1.40;;;;;;;;;;5069229;28;20044;-64
2021/07/18 11:18:09;;;;;;;2.42;1.05;;;;;;;;;;5064630;28;20109;-64
2021/07/18 11:20:55;;;;;;;1.67;1.00;;;;;;;;;;5054634;28;20107;-64
2021/07/18 11:23:46;;;;;;;3.25;1.15;;;;;;;;;;5061667;28;20105;-64
2021/07/18 11:26:45;;;;;;;4.05;1.20;;;;;;;;;;5055186;28;20036;-64
2021/07/18 11:29:36;;;;;;;2.13;1.02;;;;;;;;;;5069244;28;20589;-65
2021/07/18 11:32:22;;;;;;;2.60;1.10;;;;;;;;;;5065716;28;20048;-65
2021/07/18 11:35:07;;;;;;;4.38;1.25;;;;;;;;;;5064530;28;20131;-64
2021/07/18 11:37:52;;;;;;;2.90;1.10;;;;;;;;;;5086432;28;20053;-64
2021/07/18 11:40:37;;;;;;;1.67;1.00;;;;;;;;;;5059855;28;20098;-64
2021/07/18 11:43:23;;;;;;;3.53;1.45;;;;;;;;;;5102650;22;20426;-65
2021/07/18 11:46:08;;;;;;;2.63;1.20;;;;;;;;;;5041214;28;20045;-65
2021/07/18 11:48:54;;;;;;;2.75;1.70;;;;;;;;;;5039702;28;20052;-65
2021/07/18 11:51:40;;;;;;;2.63;1.13;;;;;;;;;;5036411;28;20060;-65
2021/07/18 11:54:26;;;;;;;2.67;1.40;;;;;;;;;;5051499;28;20175;-65
2021/07/18 11:57:12;;;;;;;4.35;1.42;;;;;;;;;;5051420;28;20041;-65
2021/07/18 11:59:57;;;;;;;3.95;1.50;;;;;;;;;;5051017;28;20402;-65
2021/07/18 12:02:44;;;;;;;2.97;1.50;;;;;;;;;;5034284;28;20650;-65
2021/07/18 12:05:29;;;;;;;5.05;1.85;;;;;;;;;;5053991;28;20045;-65
2021/07/18 12:08:14;;;;;;;3.63;1.55;;;;;;;;;;5054001;28;20055;-65
2021/07/18 12:11:03;;;;;;;1.80;1.10;;;;;;;;;;5054386;28;20072;-65
2021/07/18 12:13:50;;;;;;;1.35;1.25;;;;;;;;;;5043062;28;20507;-65
2021/07/18 12:16:37;;;;;;;1.40;1.30;;;;;;;;;;5038910;28;20033;-64
2021/07/18 12:19:24;;;;;;;3.10;1.30;;;;;;;;;;5041727;28;20048;-65
2021/07/18 12:22:19;;;;;;;2.72;1.98;;;;;;;;;;5043994;28;20052;-64
2021/07/18 12:25:05;;;;;;;2.58;1.30;;;;;;;;;;5043525;28;20044;-64
2021/07/18 12:27:51;;;;;;;2.83;1.30;;;;;;;;;;5043993;28;20038;-65
2021/07/18 12:30:36;;;;;;;2.40;1.60;;;;;;;;;;5043198;28;20041;-64
2021/07/18 12:33:25;;;;;;;2.83;1.17;;;;;;;;;;5039980;28;20048;-64
2021/07/18 12:36:10;;;;;;;3.20;1.27;;;;;;;;;;5054757;28;20509;-66
2021/07/18 12:39:14;;;;;;;3.75;1.30;;;;;;;;;;5030819;28;20050;-65
2021/07/18 12:42:01;;;;;;;4.55;1.40;;;;;;;;;;5051097;28;20048;-65
2021/07/18 12:44:47;;;;;;;3.22;1.40;;;;;;;;;;5040443;28;20052;-65
2021/07/18 12:47:36;;;;;;;3.58;1.73;;;;;;;;;;5051767;28;20494;-65
2021/07/18 12:50:21;;;;;;;5.50;1.25;;;;;;;;;;5052583;28;20049;-65
2021/07/18 12:53:16;;;;;;;3.25;1.40;;;;;;;;;;5045768;28;20493;-65
2021/07/18 12:56:02;;;;;;;2.42;1.60;;;;;;;;;;5044457;28;20036;-65
2021/07/18 12:58:50;;;;;;;3.15;1.30;;;;;;;;;;5038096;28;20122;-65
2021/07/18 13:01:38;;;;;;;3.55;1.27;;;;;;;;;;5029767;28;20049;-65
2021/07/18 13:04:33;;;;;;;2.80;1.75;;;;;;;;;;5053250;28;20048;-66
2021/07/18 13:07:18;;;;;;;3.08;1.80;;;;;;;;;;5049275;28;20160;-65
2021/07/18 13:10:22;;;;;;;3.88;1.67;;;;;;;;;;5044582;28;20053;-66
2021/07/18 13:13:07;;;;;;;3.35;1.50;;;;;;;;;;5032827;28;20048;-66
2021/07/18 13:16:05;;;;;;;5.30;1.65;;;;;;;;;;5047593;28;20050;-66
2021/07/18 13:18:51;;;;;;;2.70;1.60;;;;;;;;;;5053672;28;20045;-66
2021/07/18 13:21:36;;;;;;;3.58;1.80;;;;;;;;;;5051139;28;20047;-65
2021/07/18 13:24:35;;;;;;;3.25;1.30;;;;;;;;;;5052020;28;20059;-66
2021/07/18 13:27:21;;;;;;;8.32;1.90;;;;;;;;;;5053086;28;20044;-65
2021/07/18 13:30:07;;;;;;;8.07;1.60;;;;;;;;;;5034919;28;20530;-66
2021/07/18 13:32:53;;;;;;;3.20;1.58;;;;;;;;;;5034544;28;20038;-66
2021/07/18 13:35:48;;;;;;;6.25;1.60;;;;;;;;;;5033405;28;20045;-66
2021/07/18 13:38:34;;;;;;;3.90;1.35;;;;;;;;;;5049267;28;20435;-65
2021/07/18 13:41:22;;;;;;;3.20;1.38;;;;;;;;;;5051944;28;20552;-65
2021/07/18 13:44:09;;;;;;;4.03;1.27;;;;;;;;;;5035964;28;20053;-67
2021/07/18 13:46:54;;;;;;;3.90;1.50;;;;;;;;;;5040023;28;20408;-65
2021/07/18 13:49:39;;;;;;;7.00;1.90;;;;;;;;;;5048851;28;20048;-65
2021/07/18 13:52:25;;;;;;;5.03;2.13;;;;;;;;;;5052698;28;20159;-66
2021/07/18 13:55:11;;;;;;;7.80;2.00;;;;;;;;;;5052771;28;20051;-65
2021/07/18 13:57:56;;;;;;;5.75;2.10;;;;;;;;;;5047037;28;20146;-65
2021/07/18 14:00:42;;;;;;;4.30;2.17;;;;;;;;;;5039264;28;20511;-66
2021/07/18 14:03:27;;;;;;;6.15;2.45;;;;;;;;;;5041778;28;20045;-66
2021/07/18 14:06:14;;;;;;;3.72;1.83;;;;;;;;;;5039806;28;20095;-66
2021/07/18 14:08:59;;;;;;;5.57;2.08;;;;;;;;;;5033895;28;20046;-66
2021/07/18 14:11:45;;;;;;;6.60;1.90;;;;;;;;;;5039495;28;20071;-66
2021/07/18 14:14:30;;;;;;;7.07;2.05;;;;;;;;;;5034868;28;20389;-66
2021/07/18 14:17:16;;;;;;;9.05;1.85;;;;;;;;;;5041230;28;20090;-66
2021/07/18 14:20:01;;;;;;;4.97;2.00;;;;;;;;;;5037663;28;20068;-66
2021/07/18 14:22:47;;;;;;;4.95;2.00;;;;;;;;;;5041702;28;20095;-66
2021/07/18 14:25:34;;;;;;;5.15;2.17;;;;;;;;;;5037175;28;20060;-66
2021/07/18 14:28:19;;;;;;;5.40;2.25;;;;;;;;;;5049364;28;20083;-66
2021/07/18 14:31:05;;;;;;;4.22;1.80;;;;;;;;;;5030659;28;20597;-65
2021/07/18 14:33:50;;;;;;;4.53;1.60;;;;;;;;;;5047919;28;20051;-67
2021/07/18 14:36:35;;;;;;;9.80;2.10;;;;;;;;;;5041445;28;20399;-66
2021/07/18 14:39:20;;;;;;;6.07;2.10;;;;;;;;;;5037263;28;20070;-66
2021/07/18 14:42:06;;;;;;;4.75;2.00;;;;;;;;;;5034439;28;20462;-66
2021/07/18 14:44:51;;;;;;;6.32;2.30;;;;;;;;;;5044481;28;20518;-66
2021/07/18 14:47:37;;;;;;;6.53;2.90;;;;;;;;;;5049248;28;20063;-67
2021/07/18 14:50:22;;;;;;;7.05;2.50;;;;;;;;;;5048409;28;20049;-67
2021/07/18 14:53:08;;;;;;;5.47;2.35;;;;;;;;;;5048529;28;20060;-67
2021/07/18 14:55:53;;;;;;;4.05;2.08;;;;;;;;;;5042773;28;20045;-68
2021/07/18 14:58:39;;;;;;;5.22;1.60;;;;;;;;;;5041136;28;20183;-67
2021/07/18 15:01:25;;;;;;;4.28;2.00;;;;;;;;;;5041875;28;20423;-67
2021/07/18 15:04:10;;;;;;;5.03;1.45;;;;;;;;;;5031155;28;20059;-66
2021/07/18 15:06:56;;;;;;;5.28;1.95;;;;;;;;;;5039712;28;20060;-66
2021/07/18 15:09:41;;;;;;;4.25;1.80;;;;;;;;;;5049692;28;20045;-65
2021/07/18 15:12:26;;;;;;;4.53;1.85;;;;;;;;;;5034819;28;20052;-65
2021/07/18 15:15:12;;;;;;;3.80;2.05;;;;;;;;;;5037420;28;20057;-65
2021/07/18 15:17:58;;;;;;;5.22;2.17;;;;;;;;;;5039659;28;20061;-65
2021/07/18 15:20:43;;;;;;;4.57;2.17;;;;;;;;;;5045118;28;20040;-66
2021/07/18 15:23:28;;;;;;;7.07;1.70;;;;;;;;;;5039049;28;20115;-66
2021/07/18 15:26:13;;;;;;;5.70;1.80;;;;;;;;;;5043028;28;20068;-68
2021/07/18 15:28:59;;;;;;;3.92;1.40;;;;;;;;;;5043431;28;20132;-65
2021/07/18 15:31:44;;;;;;;3.78;1.73;;;;;;;;;;5044909;28;20052;-66
2021/07/18 15:34:30;;;;;;;4.72;1.70;;;;;;;;;;5047235;28;20056;-65
2021/07/18 15:37:15;;;;;;;3.08;1.48;;;;;;;;;;5052818;28;20053;-65
2021/07/18 15:40:00;;;;;;;4.75;2.17;;;;;;;;;;5053148;28;20053;-65
2021/07/18 15:42:46;;;;;;;3.92;1.90;;;;;;;;;;5050770;28;20797;-65
2021/07/18 15:45:31;;;;;;;3.83;2.10;;;;;;;;;;5045795;28;20045;-65
2021/07/18 15:48:17;;;;;;;4.10;1.83;;;;;;;;;;5049354;28;20116;-67
2021/07/18 15:51:02;;;;;;;7.00;2.03;;;;;;;;;;5049752;28;20037;-65
2021/07/18 15:53:47;;;;;;;3.22;1.83;;;;;;;;;;5053050;28;20072;-65
2021/07/18 15:56:34;;;;;;;3.30;1.67;;;;;;;;;;5054296;28;20045;-65
2021/07/18 15:59:19;;;;;;;3.67;1.58;;;;;;;;;;5050352;28;20111;-65
2021/07/18 16:02:04;;;;;;;4.15;1.55;;;;;;;;;;5051484;28;20037;-65
2021/07/18 16:04:49;;;;;;;3.70;1.92;;;;;;;;;;5054497;28;20049;-64
2021/07/18 16:07:36;;;;;;;3.70;1.50;;;;;;;;;;5051733;28;20052;-65
2021/07/18 16:10:21;;;;;;;5.10;2.28;;;;;;;;;;5051620;28;20052;-66
2021/07/18 16:13:07;;;;;;;5.88;2.10;;;;;;;;;;5034710;28;20180;-65
2021/07/18 16:15:52;;;;;;;3.67;1.75;;;;;;;;;;5048321;28;20130;-65
2021/07/18 16:18:37;;;;;;;5.10;2.00;;;;;;;;;;5052211;28;20052;-65
2021/07/18 16:21:23;;;;;;;4.28;2.05;;;;;;;;;;5050448;28;20126;-66
2021/07/18 16:24:09;;;;;;;4.03;2.50;;;;;;;;;;5050037;28;20146;-65